sensor_id;sensor_type;location;lat;lon;timestamp;P1;durP1;ratioP1;P2;durP2;ratioP2
83732;SDS011;73710;49.968;8.338;2023-11-19T05:05:15;1.05;;;0.57;;
83732;SDS011;73710;49.968;8.338;2023-11-19T05:07:40;1.80;;;0.50;;
83732;SDS011;73710;49.968;8.338;2023-11-19T05:10:06;1.92;;;0.70;;
83732;SDS011;73710;49.968;8.338;2023-11-19T05:12:32;1.15;;;0.50;;
83732;SDS011;73710;49.968;8.338;2023-11-19T05:14:57;0.95;;;0.50;;
83732;SDS011;73710;49.968;8.338;2023-11-19T05:17:23;3.10;;;0.40;;
83732;SDS011;73710;49.968;8.338;2023-11-19T05:19:48;1.23;;;0.45;;
83732;SDS011;73710;49.968;8.338;2023-11-19T05:22:14;1.23;;;0.40;;
83732;SDS011;73710;49.968;8.338;2023-11-19T05:24:39;0.43;;;0.20;;
83732;SDS011;73710;49.968;8.338;2023-11-19T05:27:05;4.95;;;0.35;;
83732;SDS011;73710;49.968;8.338;2023-11-19T05:29:32;1.25;;;0.57;;
83732;SDS011;73710;49.968;8.338;2023-11-19T05:31:58;0.35;;;0.22;;
83732;SDS011;73710;49.968;8.338;2023-11-19T05:34:23;2.20;;;0.33;;
83732;SDS011;73710;49.968;8.338;2023-11-19T05:36:49;0.85;;;0.40;;
83732;SDS011;73710;49.968;8.338;2023-11-19T05:39:15;0.70;;;0.30;;
83732;SDS011;73710;49.968;8.338;2023-11-19T05:41:41;0.40;;;0.25;;
83732;SDS011;73710;49.968;8.338;2023-11-19T05:44:06;1.00;;;0.20;;
83732;SDS011;73710;49.968;8.338;2023-11-19T05:46:32;0.60;;;0.33;;
83732;SDS011;73710;49.968;8.338;2023-11-19T05:48:57;1.50;;;0.20;;
83732;SDS011;73710;49.968;8.338;2023-11-19T05:51:23;0.88;;;0.30;;
83732;SDS011;73710;49.968;8.338;2023-11-19T05:53:49;0.60;;;0.30;;
83732;SDS011;73710;49.968;8.338;2023-11-19T05:56:15;0.65;;;0.30;;
83732;SDS011;73710;49.968;8.338;2023-11-19T05:58:46;0.32;;;0.20;;
83732;SDS011;73710;49.968;8.338;2023-11-19T06:01:13;1.00;;;0.57;;
83732;SDS011;73710;49.968;8.338;2023-11-19T06:03:38;1.05;;;0.65;;
83732;SDS011;73710;49.968;8.338;2023-11-19T06:06:04;4.75;;;0.98;;
83732;SDS011;73710;49.968;8.338;2023-11-19T06:08:30;1.58;;;0.55;;
83732;SDS011;73710;49.968;8.338;2023-11-19T06:10:55;0.93;;;0.52;;
83732;SDS011;73710;49.968;8.338;2023-11-19T06:13:21;1.23;;;0.40;;
83732;SDS011;73710;49.968;8.338;2023-11-19T06:15:46;0.93;;;0.20;;
83732;SDS011;73710;49.968;8.338;2023-11-19T06:18:12;1.13;;;0.50;;
83732;SDS011;73710;49.968;8.338;2023-11-19T06:20:37;0.82;;;0.45;;
83732;SDS011;73710;49.968;8.338;2023-11-19T06:23:02;1.20;;;0.40;;
83732;SDS011;73710;49.968;8.338;2023-11-19T06:25:28;1.00;;;0.63;;
83732;SDS011;73710;49.968;8.338;2023-11-19T06:27:53;1.10;;;0.50;;
83732;SDS011;73710;49.968;8.338;2023-11-19T06:30:19;0.90;;;0.30;;
83732;SDS011;73710;49.968;8.338;2023-11-19T06:32:44;0.85;;;0.32;;
83732;SDS011;73710;49.968;8.338;2023-11-19T06:35:10;0.85;;;0.47;;
83732;SDS011;73710;49.968;8.338;2023-11-19T06:37:38;2.55;;;0.65;;
83732;SDS011;73710;49.968;8.338;2023-11-19T06:40:03;2.08;;;0.63;;
83732;SDS011;73710;49.968;8.338;2023-11-19T06:42:30;0.95;;;0.50;;
83732;SDS011;73710;49.968;8.338;2023-11-19T06:44:55;1.80;;;0.93;;
83732;SDS011;73710;49.968;8.338;2023-11-19T06:47:22;2.65;;;0.95;;
83732;SDS011;73710;49.968;8.338;2023-11-19T06:49:50;1.58;;;0.75;;
83732;SDS011;73710;49.968;8.338;2023-11-19T06:52:15;1.50;;;0.87;;
83732;SDS011;73710;49.968;8.338;2023-11-19T06:54:41;2.00;;;0.50;;
83732;SDS011;73710;49.968;8.338;2023-11-19T06:57:06;2.10;;;1.20;;
83732;SDS011;73710;49.968;8.338;2023-11-19T06:59:32;1.63;;;0.55;;
83732;SDS011;73710;49.968;8.338;2023-11-19T07:01:57;2.60;;;1.33;;
83732;SDS011;73710;49.968;8.338;2023-11-19T07:04:24;9.77;;;3.63;;
83732;SDS011;73710;49.968;8.338;2023-11-19T07:06:49;9.50;;;4.88;;
83732;SDS011;73710;49.968;8.338;2023-11-19T07:09:15;10.02;;;4.45;;
83732;SDS011;73710;49.968;8.338;2023-11-19T07:11:40;5.60;;;3.22;;
83732;SDS011;73710;49.968;8.338;2023-11-19T07:14:07;7.68;;;3.33;;
83732;SDS011;73710;49.968;8.338;2023-11-19T07:16:33;3.58;;;1.60;;
83732;SDS011;73710;49.968;8.338;2023-11-19T07:19:01;4.00;;;2.00;;
83732;SDS011;73710;49.968;8.338;2023-11-19T07:21:26;3.60;;;1.88;;
83732;SDS011;73710;49.968;8.338;2023-11-19T07:23:56;3.53;;;1.83;;
83732;SDS011;73710;49.968;8.338;2023-11-19T07:26:22;3.13;;;1.60;;
83732;SDS011;73710;49.968;8.338;2023-11-19T07:28:48;2.63;;;1.35;;
83732;SDS011;73710;49.968;8.338;2023-11-19T07:31:16;2.78;;;1.23;;
83732;SDS011;73710;49.968;8.338;2023-11-19T07:33:44;2.03;;;1.30;;
83732;SDS011;73710;49.968;8.338;2023-11-19T07:36:10;3.25;;;1.58;;
83732;SDS011;73710;49.968;8.338;2023-11-19T07:38:36;5.45;;;1.80;;
83732;SDS011;73710;49.968;8.338;2023-11-19T07:41:02;3.97;;;2.17;;
83732;SDS011;73710;49.968;8.338;2023-11-19T07:43:27;3.40;;;2.00;;
83732;SDS011;73710;49.968;8.338;2023-11-19T07:45:53;4.65;;;2.33;;
83732;SDS011;73710;49.968;8.338;2023-11-19T07:48:18;3.72;;;1.83;;
83732;SDS011;73710;49.968;8.338;2023-11-19T07:50:51;2.45;;;1.60;;
83732;SDS011;73710;49.968;8.338;2023-11-19T07:53:17;3.20;;;2.05;;
83732;SDS011;73710;49.968;8.338;2023-11-19T07:55:43;2.90;;;2.08;;
83732;SDS011;73710;49.968;8.338;2023-11-19T07:58:09;2.08;;;1.58;;
83732;SDS011;73710;49.968;8.338;2023-11-19T08:00:35;1.83;;;1.15;;
83732;SDS011;73710;49.968;8.338;2023-11-19T08:03:01;1.25;;;1.05;;
83732;SDS011;73710;49.968;8.338;2023-11-19T08:05:26;2.97;;;1.20;;
83732;SDS011;73710;49.968;8.338;2023-11-19T08:07:52;3.10;;;1.80;;
83732;SDS011;73710;49.968;8.338;2023-11-19T08:10:18;2.90;;;1.45;;
83732;SDS011;73710;49.968;8.338;2023-11-19T08:12:44;3.60;;;1.40;;
83732;SDS011;73710;49.968;8.338;2023-11-19T08:15:09;2.42;;;1.35;;
83732;SDS011;73710;49.968;8.338;2023-11-19T08:17:35;2.38;;;1.63;;
83732;SDS011;73710;49.968;8.338;2023-11-19T08:20:01;3.15;;;1.80;;
83732;SDS011;73710;49.968;8.338;2023-11-19T08:22:27;2.90;;;1.77;;
83732;SDS011;73710;49.968;8.338;2023-11-19T08:24:52;2.45;;;1.77;;
83732;SDS011;73710;49.968;8.338;2023-11-19T08:27:17;2.58;;;1.30;;
83732;SDS011;73710;49.968;8.338;2023-11-19T08:29:43;4.30;;;1.90;;
83732;SDS011;73710;49.968;8.338;2023-11-19T08:32:08;2.20;;;1.30;;
83732;SDS011;73710;49.968;8.338;2023-11-19T08:34:34;2.80;;;1.38;;
83732;SDS011;73710;49.968;8.338;2023-11-19T08:36:59;3.25;;;1.80;;
83732;SDS011;73710;49.968;8.338;2023-11-19T08:39:25;3.08;;;1.70;;
83732;SDS011;73710;49.968;8.338;2023-11-19T08:41:50;2.95;;;1.83;;
83732;SDS011;73710;49.968;8.338;2023-11-19T08:44:16;4.47;;;3.05;;
83732;SDS011;73710;49.968;8.338;2023-11-19T08:46:48;2.35;;;1.63;;
83732;SDS011;73710;49.968;8.338;2023-11-19T08:49:14;3.53;;;2.22;;
83732;SDS011;73710;49.968;8.338;2023-11-19T08:51:40;3.30;;;1.73;;
83732;SDS011;73710;49.968;8.338;2023-11-19T08:54:05;2.88;;;1.50;;
83732;SDS011;73710;49.968;8.338;2023-11-19T08:56:31;1.85;;;0.80;;
83732;SDS011;73710;49.968;8.338;2023-11-19T08:58:58;3.15;;;1.10;;
83732;SDS011;73710;49.968;8.338;2023-11-19T09:01:23;2.38;;;1.00;;
83732;SDS011;73710;49.968;8.338;2023-11-19T09:03:49;2.13;;;1.20;;
83732;SDS011;73710;49.968;8.338;2023-11-19T09:06:15;2.35;;;1.20;;
83732;SDS011;73710;49.968;8.338;2023-11-19T09:08:41;1.10;;;0.75;;
83732;SDS011;73710;49.968;8.338;2023-11-19T09:11:07;3.88;;;1.02;;
83732;SDS011;73710;49.968;8.338;2023-11-19T09:13:34;1.60;;;0.50;;
83732;SDS011;73710;49.968;8.338;2023-11-19T09:16:02;5.63;;;1.10;;
83732;SDS011;73710;49.968;8.338;2023-11-19T09:18:31;1.67;;;0.52;;
83732;SDS011;73710;49.968;8.338;2023-11-19T09:20:57;0.93;;;0.77;;
83732;SDS011;73710;49.968;8.338;2023-11-19T09:23:22;10.73;;;0.82;;
83732;SDS011;73710;49.968;8.338;2023-11-19T09:25:50;1.80;;;0.50;;
83732;SDS011;73710;49.968;8.338;2023-11-19T09:28:15;3.00;;;0.63;;
83732;SDS011;73710;49.968;8.338;2023-11-19T09:30:41;4.70;;;0.65;;
83732;SDS011;73710;49.968;8.338;2023-11-19T09:33:06;4.60;;;0.50;;
83732;SDS011;73710;49.968;8.338;2023-11-19T09:35:31;5.70;;;0.80;;
83732;SDS011;73710;49.968;8.338;2023-11-19T09:37:57;2.75;;;0.65;;
83732;SDS011;73710;49.968;8.338;2023-11-19T09:40:24;3.35;;;0.50;;
83732;SDS011;73710;49.968;8.338;2023-11-19T09:42:49;0.55;;;0.25;;
83732;SDS011;73710;49.968;8.338;2023-11-19T09:45:16;2.53;;;0.47;;
83732;SDS011;73710;49.968;8.338;2023-11-19T09:47:43;1.35;;;0.47;;
83732;SDS011;73710;49.968;8.338;2023-11-19T09:50:12;1.33;;;0.60;;
83732;SDS011;73710;49.968;8.338;2023-11-19T09:52:41;0.82;;;0.20;;
83732;SDS011;73710;49.968;8.338;2023-11-19T09:55:07;1.83;;;0.75;;
83732;SDS011;73710;49.968;8.338;2023-11-19T09:57:32;1.13;;;0.73;;
83732;SDS011;73710;49.968;8.338;2023-11-19T10:00:02;3.22;;;0.40;;
83732;SDS011;73710;49.968;8.338;2023-11-19T10:02:30;2.45;;;0.55;;
83732;SDS011;73710;49.968;8.338;2023-11-19T10:04:58;3.35;;;0.95;;
83732;SDS011;73710;49.968;8.338;2023-11-19T10:07:28;7.03;;;1.20;;
83732;SDS011;73710;49.968;8.338;2023-11-19T10:09:53;2.30;;;1.02;;
83732;SDS011;73710;49.968;8.338;2023-11-19T10:12:18;0.70;;;0.43;;
83732;SDS011;73710;49.968;8.338;2023-11-19T10:14:44;0.75;;;0.28;;
83732;SDS011;73710;49.968;8.338;2023-11-19T10:17:11;3.90;;;0.88;;
83732;SDS011;73710;49.968;8.338;2023-11-19T10:19:36;2.10;;;0.47;;
83732;SDS011;73710;49.968;8.338;2023-11-19T10:22:04;1.95;;;0.32;;
83732;SDS011;73710;49.968;8.338;2023-11-19T10:24:33;6.97;;;0.60;;
83732;SDS011;73710;49.968;8.338;2023-11-19T10:27:02;1.85;;;0.50;;
83732;SDS011;73710;49.968;8.338;2023-11-19T10:29:31;5.50;;;0.95;;
83732;SDS011;73710;49.968;8.338;2023-11-19T10:31:57;1.00;;;0.28;;
83732;SDS011;73710;49.968;8.338;2023-11-19T10:34:26;3.13;;;0.32;;
83732;SDS011;73710;49.968;8.338;2023-11-19T10:36:52;0.88;;;0.40;;
83732;SDS011;73710;49.968;8.338;2023-11-19T10:39:18;2.42;;;0.52;;
83732;SDS011;73710;49.968;8.338;2023-11-19T10:41:43;4.50;;;0.47;;
83732;SDS011;73710;49.968;8.338;2023-11-19T10:44:09;1.15;;;0.60;;
83732;SDS011;73710;49.968;8.338;2023-11-19T10:46:39;4.85;;;0.65;;
83732;SDS011;73710;49.968;8.338;2023-11-19T10:49:06;1.63;;;0.43;;
83732;SDS011;73710;49.968;8.338;2023-11-19T10:51:32;0.93;;;0.45;;
83732;SDS011;73710;49.968;8.338;2023-11-19T10:54:01;1.05;;;0.30;;
83732;SDS011;73710;49.968;8.338;2023-11-19T10:56:29;2.72;;;0.70;;
83732;SDS011;73710;49.968;8.338;2023-11-19T10:58:56;0.98;;;0.30;;
83732;SDS011;73710;49.968;8.338;2023-11-19T11:01:24;0.63;;;0.35;;
83732;SDS011;73710;49.968;8.338;2023-11-19T11:06:21;1.95;;;0.45;;
83732;SDS011;73710;49.968;8.338;2023-11-19T11:08:48;1.83;;;0.40;;
83732;SDS011;73710;49.968;8.338;2023-11-19T11:11:15;2.58;;;0.57;;
83732;SDS011;73710;49.968;8.338;2023-11-19T11:13:42;3.45;;;0.55;;
83732;SDS011;73710;49.968;8.338;2023-11-19T11:16:09;4.70;;;0.70;;
83732;SDS011;73710;49.968;8.338;2023-11-19T11:18:36;1.23;;;0.32;;
83732;SDS011;73710;49.968;8.338;2023-11-19T11:21:22;6.68;;;1.08;;
83732;SDS011;73710;49.968;8.338;2023-11-19T11:39:49;4.20;;;0.57;;
83732;SDS011;73710;49.968;8.338;2023-11-19T11:44:59;1.70;;;0.40;;
83732;SDS011;73710;49.968;8.338;2023-11-19T11:47:52;2.65;;;0.60;;
83732;SDS011;73710;49.968;8.338;2023-11-19T11:50:21;5.18;;;0.55;;
83732;SDS011;73710;49.968;8.338;2023-11-19T11:57:57;1.48;;;0.40;;
83732;SDS011;73710;49.968;8.338;2023-11-19T12:00:29;2.05;;;0.75;;
83732;SDS011;73710;49.968;8.338;2023-11-19T12:02:56;2.08;;;0.30;;
83732;SDS011;73710;49.968;8.338;2023-11-19T12:05:24;2.92;;;0.60;;
83732;SDS011;73710;49.968;8.338;2023-11-19T12:08:05;3.72;;;0.50;;
83732;SDS011;73710;49.968;8.338;2023-11-19T12:10:34;0.95;;;0.30;;
83732;SDS011;73710;49.968;8.338;2023-11-19T12:13:08;1.58;;;0.63;;
83732;SDS011;73710;49.968;8.338;2023-11-19T12:15:44;0.65;;;0.13;;
83732;SDS011;73710;49.968;8.338;2023-11-19T12:18:26;1.80;;;0.57;;
83732;SDS011;73710;49.968;8.338;2023-11-19T12:20:53;1.55;;;0.15;;
83732;SDS011;73710;49.968;8.338;2023-11-19T12:23:18;3.47;;;0.80;;
83732;SDS011;73710;49.968;8.338;2023-11-19T12:25:44;5.63;;;0.68;;
83732;SDS011;73710;49.968;8.338;2023-11-19T12:28:14;1.70;;;0.28;;
83732;SDS011;73710;49.968;8.338;2023-11-19T12:30:44;2.05;;;0.55;;
83732;SDS011;73710;49.968;8.338;2023-11-19T12:33:11;4.47;;;0.30;;
83732;SDS011;73710;49.968;8.338;2023-11-19T12:35:44;0.52;;;0.20;;
83732;SDS011;73710;49.968;8.338;2023-11-19T12:38:24;3.50;;;0.60;;
83732;SDS011;73710;49.968;8.338;2023-11-19T12:41:02;2.15;;;0.22;;
83732;SDS011;73710;49.968;8.338;2023-11-19T12:43:31;1.70;;;0.50;;
83732;SDS011;73710;49.968;8.338;2023-11-19T12:45:56;1.88;;;0.45;;
83732;SDS011;73710;49.968;8.338;2023-11-19T12:48:22;1.15;;;0.30;;
83732;SDS011;73710;49.968;8.338;2023-11-19T12:53:24;5.07;;;0.93;;
83732;SDS011;73710;49.968;8.338;2023-11-19T12:55:51;4.95;;;0.35;;
83732;SDS011;73710;49.968;8.338;2023-11-19T12:58:33;1.45;;;0.20;;
83732;SDS011;73710;49.968;8.338;2023-11-19T13:01:04;3.10;;;0.73;;
83732;SDS011;73710;49.968;8.338;2023-11-19T13:03:35;3.30;;;0.90;;
83732;SDS011;73710;49.968;8.338;2023-11-19T13:06:04;3.72;;;0.80;;
83732;SDS011;73710;49.968;8.338;2023-11-19T13:08:39;3.13;;;1.27;;
83732;SDS011;73710;49.968;8.338;2023-11-19T13:11:09;1.98;;;0.40;;
83732;SDS011;73710;49.968;8.338;2023-11-19T13:16:30;3.53;;;0.38;;
83732;SDS011;73710;49.968;8.338;2023-11-19T13:18:56;1.65;;;0.30;;
83732;SDS011;73710;49.968;8.338;2023-11-19T13:21:22;1.08;;;0.40;;
83732;SDS011;73710;49.968;8.338;2023-11-19T13:23:48;1.65;;;0.22;;
83732;SDS011;73710;49.968;8.338;2023-11-19T13:26:14;2.88;;;0.50;;
83732;SDS011;73710;49.968;8.338;2023-11-19T13:28:39;2.85;;;0.63;;
83732;SDS011;73710;49.968;8.338;2023-11-19T13:31:04;1.75;;;0.45;;
83732;SDS011;73710;49.968;8.338;2023-11-19T13:33:30;0.60;;;0.20;;
83732;SDS011;73710;49.968;8.338;2023-11-19T13:35:56;2.30;;;0.30;;
83732;SDS011;73710;49.968;8.338;2023-11-19T13:38:22;5.40;;;0.50;;
83732;SDS011;73710;49.968;8.338;2023-11-19T13:40:49;5.78;;;0.40;;
83732;SDS011;73710;49.968;8.338;2023-11-19T13:43:14;2.50;;;0.57;;
83732;SDS011;73710;49.968;8.338;2023-11-19T13:45:40;3.65;;;0.32;;
83732;SDS011;73710;49.968;8.338;2023-11-19T13:48:05;7.15;;;1.33;;
83732;SDS011;73710;49.968;8.338;2023-11-19T13:50:31;2.97;;;0.50;;
83732;SDS011;73710;49.968;8.338;2023-11-19T13:52:57;1.00;;;0.17;;
83732;SDS011;73710;49.968;8.338;2023-11-19T13:55:22;3.03;;;0.52;;
83732;SDS011;73710;49.968;8.338;2023-11-19T13:57:48;2.33;;;0.57;;
83732;SDS011;73710;49.968;8.338;2023-11-19T14:00:14;2.45;;;0.45;;
83732;SDS011;73710;49.968;8.338;2023-11-19T14:02:45;3.15;;;0.63;;
83732;SDS011;73710;49.968;8.338;2023-11-19T14:05:12;4.80;;;0.50;;
83732;SDS011;73710;49.968;8.338;2023-11-19T14:07:38;4.05;;;0.88;;
83732;SDS011;73710;49.968;8.338;2023-11-19T14:10:05;1.55;;;0.30;;
83732;SDS011;73710;49.968;8.338;2023-11-19T14:12:31;6.28;;;0.50;;
83732;SDS011;73710;49.968;8.338;2023-11-19T14:14:57;5.28;;;0.80;;
83732;SDS011;73710;49.968;8.338;2023-11-19T14:17:23;5.47;;;0.65;;
83732;SDS011;73710;49.968;8.338;2023-11-19T14:19:50;3.00;;;0.38;;
83732;SDS011;73710;49.968;8.338;2023-11-19T14:22:15;2.22;;;0.40;;
83732;SDS011;73710;49.968;8.338;2023-11-19T14:24:41;1.48;;;0.50;;
83732;SDS011;73710;49.968;8.338;2023-11-19T14:27:08;3.13;;;0.80;;
83732;SDS011;73710;49.968;8.338;2023-11-19T14:29:33;0.98;;;0.25;;
83732;SDS011;73710;49.968;8.338;2023-11-19T14:32:03;2.05;;;0.25;;
83732;SDS011;73710;49.968;8.338;2023-11-19T14:34:29;5.00;;;1.35;;
83732;SDS011;73710;49.968;8.338;2023-11-19T14:36:55;5.07;;;0.55;;
83732;SDS011;73710;49.968;8.338;2023-11-19T14:39:21;3.03;;;0.52;;
83732;SDS011;73710;49.968;8.338;2023-11-19T14:41:46;2.38;;;0.52;;
83732;SDS011;73710;49.968;8.338;2023-11-19T14:44:12;1.75;;;0.43;;
83732;SDS011;73710;49.968;8.338;2023-11-19T14:46:37;2.05;;;0.45;;
83732;SDS011;73710;49.968;8.338;2023-11-19T14:49:03;3.97;;;1.20;;
83732;SDS011;73710;49.968;8.338;2023-11-19T14:51:35;2.92;;;0.45;;
83732;SDS011;73710;49.968;8.338;2023-11-19T14:54:03;1.13;;;0.57;;
83732;SDS011;73710;49.968;8.338;2023-11-19T14:56:31;3.17;;;1.02;;
83732;SDS011;73710;49.968;8.338;2023-11-19T14:58:57;8.55;;;0.82;;
83732;SDS011;73710;49.968;8.338;2023-11-19T15:01:23;2.83;;;0.60;;
83732;SDS011;73710;49.968;8.338;2023-11-19T15:03:49;2.30;;;0.50;;
83732;SDS011;73710;49.968;8.338;2023-11-19T15:06:15;1.13;;;0.30;;
83732;SDS011;73710;49.968;8.338;2023-11-19T15:08:41;6.82;;;0.82;;
83732;SDS011;73710;49.968;8.338;2023-11-19T15:11:07;0.98;;;0.38;;
83732;SDS011;73710;49.968;8.338;2023-11-19T15:13:34;2.13;;;0.43;;
83732;SDS011;73710;49.968;8.338;2023-11-19T15:16:02;2.38;;;0.40;;
83732;SDS011;73710;49.968;8.338;2023-11-19T15:18:30;4.55;;;0.60;;
83732;SDS011;73710;49.968;8.338;2023-11-19T15:20:56;6.53;;;0.80;;
83732;SDS011;73710;49.968;8.338;2023-11-19T15:23:22;2.47;;;0.60;;
83732;SDS011;73710;49.968;8.338;2023-11-19T15:25:47;4.88;;;0.55;;
83732;SDS011;73710;49.968;8.338;2023-11-19T15:28:14;9.45;;;0.82;;
83732;SDS011;73710;49.968;8.338;2023-11-19T15:30:39;2.55;;;0.40;;
83732;SDS011;73710;49.968;8.338;2023-11-19T15:33:05;6.28;;;0.90;;
83732;SDS011;73710;49.968;8.338;2023-11-19T15:35:30;5.20;;;0.80;;
83732;SDS011;73710;49.968;8.338;2023-11-19T15:37:55;1.75;;;0.25;;
83732;SDS011;73710;49.968;8.338;2023-11-19T15:40:21;3.40;;;0.80;;
83732;SDS011;73710;49.968;8.338;2023-11-19T15:42:47;1.98;;;0.70;;
83732;SDS011;73710;49.968;8.338;2023-11-19T15:45:14;9.25;;;0.93;;
83732;SDS011;73710;49.968;8.338;2023-11-19T15:47:41;4.25;;;0.85;;
83732;SDS011;73710;49.968;8.338;2023-11-19T15:50:07;3.67;;;0.60;;
83732;SDS011;73710;49.968;8.338;2023-11-19T15:52:35;0.98;;;0.30;;
83732;SDS011;73710;49.968;8.338;2023-11-19T15:55:00;4.13;;;0.60;;
83732;SDS011;73710;49.968;8.338;2023-11-19T15:57:25;5.72;;;0.80;;
83732;SDS011;73710;49.968;8.338;2023-11-19T15:59:51;4.72;;;0.77;;
83732;SDS011;73710;49.968;8.338;2023-11-19T16:02:17;3.10;;;0.68;;
83732;SDS011;73710;49.968;8.338;2023-11-19T16:04:42;2.72;;;0.88;;
83732;SDS011;73710;49.968;8.338;2023-11-19T16:07:12;5.53;;;0.60;;
83732;SDS011;73710;49.968;8.338;2023-11-19T16:09:38;2.95;;;0.57;;
83732;SDS011;73710;49.968;8.338;2023-11-19T16:12:04;3.95;;;0.35;;
83732;SDS011;73710;49.968;8.338;2023-11-19T16:14:29;3.60;;;0.80;;
83732;SDS011;73710;49.968;8.338;2023-11-19T16:16:55;2.47;;;0.70;;
83732;SDS011;73710;49.968;8.338;2023-11-19T16:19:20;5.45;;;1.00;;
83732;SDS011;73710;49.968;8.338;2023-11-19T16:21:45;5.15;;;0.65;;
83732;SDS011;73710;49.968;8.338;2023-11-19T16:24:11;4.88;;;0.68;;
83732;SDS011;73710;49.968;8.338;2023-11-19T16:26:36;2.53;;;0.68;;
83732;SDS011;73710;49.968;8.338;2023-11-19T16:29:05;3.33;;;0.60;;
83732;SDS011;73710;49.968;8.338;2023-11-19T16:31:30;5.90;;;0.95;;
83732;SDS011;73710;49.968;8.338;2023-11-19T16:33:56;1.48;;;0.65;;
83732;SDS011;73710;49.968;8.338;2023-11-19T16:36:21;2.25;;;0.63;;
83732;SDS011;73710;49.968;8.338;2023-11-19T16:38:48;1.23;;;0.65;;
83732;SDS011;73710;49.968;8.338;2023-11-19T16:41:20;3.08;;;0.38;;
83732;SDS011;73710;49.968;8.338;2023-11-19T16:43:47;1.90;;;0.50;;
83732;SDS011;73710;49.968;8.338;2023-11-19T16:46:14;7.22;;;0.75;;
83732;SDS011;73710;49.968;8.338;2023-11-19T16:48:39;4.60;;;0.90;;
83732;SDS011;73710;49.968;8.338;2023-11-19T16:51:08;2.78;;;0.95;;
83732;SDS011;73710;49.968;8.338;2023-11-19T16:53:48;3.90;;;0.65;;
83732;SDS011;73710;49.968;8.338;2023-11-19T16:56:14;5.03;;;0.70;;
83732;SDS011;73710;49.968;8.338;2023-11-19T16:58:41;3.08;;;0.50;;
83732;SDS011;73710;49.968;8.338;2023-11-19T17:01:10;2.45;;;0.47;;
83732;SDS011;73710;49.968;8.338;2023-11-19T17:03:39;6.03;;;0.82;;
83732;SDS011;73710;49.968;8.338;2023-11-19T17:06:05;4.32;;;0.70;;
83732;SDS011;73710;49.968;8.338;2023-11-19T17:08:31;7.90;;;1.42;;
83732;SDS011;73710;49.968;8.338;2023-11-19T17:11:02;3.08;;;0.73;;
83732;SDS011;73710;49.968;8.338;2023-11-19T17:13:31;3.40;;;0.60;;
83732;SDS011;73710;49.968;8.338;2023-11-19T17:15:57;4.03;;;0.82;;
83732;SDS011;73710;49.968;8.338;2023-11-19T17:18:23;1.33;;;0.40;;
83732;SDS011;73710;49.968;8.338;2023-11-19T17:20:49;13.20;;;0.82;;
83732;SDS011;73710;49.968;8.338;2023-11-19T17:23:15;3.58;;;0.68;;
83732;SDS011;73710;49.968;8.338;2023-11-19T17:25:41;2.25;;;0.77;;
83732;SDS011;73710;49.968;8.338;2023-11-19T17:28:07;1.30;;;0.68;;
83732;SDS011;73710;49.968;8.338;2023-11-19T17:30:34;0.82;;;0.57;;
83732;SDS011;73710;49.968;8.338;2023-11-19T17:33:00;1.95;;;0.40;;
83732;SDS011;73710;49.968;8.338;2023-11-19T17:35:26;2.60;;;0.57;;
83732;SDS011;73710;49.968;8.338;2023-11-19T17:37:51;2.50;;;0.68;;
83732;SDS011;73710;49.968;8.338;2023-11-19T17:40:17;2.30;;;0.40;;
83732;SDS011;73710;49.968;8.338;2023-11-19T17:42:42;0.80;;;0.35;;
83732;SDS011;73710;49.968;8.338;2023-11-19T17:45:08;4.88;;;1.33;;
83732;SDS011;73710;49.968;8.338;2023-11-19T17:47:34;5.47;;;0.77;;
83732;SDS011;73710;49.968;8.338;2023-11-19T17:50:00;3.22;;;0.77;;
83732;SDS011;73710;49.968;8.338;2023-11-19T17:52:27;1.38;;;0.40;;
83732;SDS011;73710;49.968;8.338;2023-11-19T17:54:53;1.88;;;0.43;;
83732;SDS011;73710;49.968;8.338;2023-11-19T17:57:18;0.82;;;0.43;;
83732;SDS011;73710;49.968;8.338;2023-11-19T17:59:43;1.05;;;0.38;;
83732;SDS011;73710;49.968;8.338;2023-11-19T18:02:11;3.03;;;0.88;;
83732;SDS011;73710;49.968;8.338;2023-11-19T18:04:37;1.48;;;0.60;;
83732;SDS011;73710;49.968;8.338;2023-11-19T18:07:03;3.22;;;0.60;;
83732;SDS011;73710;49.968;8.338;2023-11-19T18:09:29;9.77;;;0.85;;
83732;SDS011;73710;49.968;8.338;2023-11-19T18:11:54;6.03;;;0.80;;
83732;SDS011;73710;49.968;8.338;2023-11-19T18:14:19;1.45;;;0.50;;
83732;SDS011;73710;49.968;8.338;2023-11-19T18:16:45;3.30;;;0.95;;
83732;SDS011;73710;49.968;8.338;2023-11-19T18:19:10;1.77;;;0.40;;
83732;SDS011;73710;49.968;8.338;2023-11-19T18:21:36;2.50;;;0.45;;
83732;SDS011;73710;49.968;8.338;2023-11-19T18:24:01;2.30;;;0.57;;
83732;SDS011;73710;49.968;8.338;2023-11-19T18:26:27;2.17;;;0.80;;
83732;SDS011;73710;49.968;8.338;2023-11-19T18:28:52;5.28;;;0.65;;
83732;SDS011;73710;49.968;8.338;2023-11-19T18:31:18;4.15;;;1.33;;
83732;SDS011;73710;49.968;8.338;2023-11-19T18:33:44;4.45;;;0.57;;
83732;SDS011;73710;49.968;8.338;2023-11-19T18:36:09;4.63;;;1.27;;
83732;SDS011;73710;49.968;8.338;2023-11-19T18:38:35;4.40;;;1.08;;
83732;SDS011;73710;49.968;8.338;2023-11-19T18:41:04;4.90;;;0.75;;
83732;SDS011;73710;49.968;8.338;2023-11-19T18:43:30;8.27;;;1.05;;
83732;SDS011;73710;49.968;8.338;2023-11-19T18:45:55;8.75;;;0.93;;
83732;SDS011;73710;49.968;8.338;2023-11-19T18:48:21;1.75;;;0.63;;
83732;SDS011;73710;49.968;8.338;2023-11-19T18:50:47;9.18;;;0.90;;
83732;SDS011;73710;49.968;8.338;2023-11-19T18:53:12;3.85;;;0.50;;
83732;SDS011;73710;49.968;8.338;2023-11-19T18:55:38;3.80;;;1.10;;
83732;SDS011;73710;49.968;8.338;2023-11-19T18:58:03;5.50;;;1.40;;
83732;SDS011;73710;49.968;8.338;2023-11-19T19:00:29;3.95;;;1.05;;
83732;SDS011;73710;49.968;8.338;2023-11-19T19:02:54;2.45;;;1.00;;
83732;SDS011;73710;49.968;8.338;2023-11-19T19:05:20;4.68;;;0.65;;
83732;SDS011;73710;49.968;8.338;2023-11-19T19:07:45;3.60;;;1.00;;
83732;SDS011;73710;49.968;8.338;2023-11-19T19:10:11;3.25;;;0.90;;
83732;SDS011;73710;49.968;8.338;2023-11-19T19:12:40;2.45;;;0.93;;
83732;SDS011;73710;49.968;8.338;2023-11-19T19:15:08;4.82;;;0.88;;
83732;SDS011;73710;49.968;8.338;2023-11-19T19:17:36;6.25;;;1.13;;
83732;SDS011;73710;49.968;8.338;2023-11-19T19:20:02;3.22;;;0.90;;
83732;SDS011;73710;49.968;8.338;2023-11-19T19:22:28;4.10;;;0.95;;
83732;SDS011;73710;49.968;8.338;2023-11-19T19:24:54;11.70;;;1.52;;
83732;SDS011;73710;49.968;8.338;2023-11-19T19:27:21;1.85;;;0.88;;
83732;SDS011;73710;49.968;8.338;2023-11-19T19:29:46;4.32;;;1.08;;
83732;SDS011;73710;49.968;8.338;2023-11-19T19:32:12;6.28;;;1.38;;
83732;SDS011;73710;49.968;8.338;2023-11-19T19:34:37;9.70;;;1.23;;
83732;SDS011;73710;49.968;8.338;2023-11-19T19:37:02;4.78;;;0.90;;
83732;SDS011;73710;49.968;8.338;2023-11-19T19:39:29;4.90;;;1.33;;
83732;SDS011;73710;49.968;8.338;2023-11-19T19:41:54;7.80;;;1.10;;
83732;SDS011;73710;49.968;8.338;2023-11-19T19:44:20;8.93;;;1.95;;
83732;SDS011;73710;49.968;8.338;2023-11-19T19:46:47;1.17;;;0.60;;
83732;SDS011;73710;49.968;8.338;2023-11-19T19:49:12;3.30;;;0.75;;
83732;SDS011;73710;49.968;8.338;2023-11-19T19:51:38;4.78;;;0.80;;
83732;SDS011;73710;49.968;8.338;2023-11-19T19:54:03;1.67;;;0.70;;
83732;SDS011;73710;49.968;8.338;2023-11-19T19:56:29;6.15;;;0.93;;
83732;SDS011;73710;49.968;8.338;2023-11-19T19:58:54;2.95;;;0.63;;
83732;SDS011;73710;49.968;8.338;2023-11-19T20:01:20;2.13;;;0.52;;
83732;SDS011;73710;49.968;8.338;2023-11-19T20:03:45;4.60;;;1.23;;
83732;SDS011;73710;49.968;8.338;2023-11-19T20:06:11;3.72;;;1.10;;
83732;SDS011;73710;49.968;8.338;2023-11-19T20:08:37;6.50;;;0.90;;
83732;SDS011;73710;49.968;8.338;2023-11-19T20:11:04;2.95;;;0.50;;
83732;SDS011;73710;49.968;8.338;2023-11-19T20:13:32;3.42;;;0.80;;
83732;SDS011;73710;49.968;8.338;2023-11-19T20:15:59;5.35;;;1.08;;
83732;SDS011;73710;49.968;8.338;2023-11-19T20:18:26;4.32;;;0.65;;
83732;SDS011;73710;49.968;8.338;2023-11-19T20:20:54;2.83;;;0.50;;